Terminal Aerodrome Forecast
Issued by NWS

Home | Current Version | Previous Version | Graphics & Text | Print | Product List | Glossary On
Versions: 1 2 3 4 5 6 7 8 9 10 11 12 13 14 15 16 17 18 19 20 21
146
FTUS43 KABR 250530
TAFMBG
TAF
KMBG 250530Z 2506/2606 VRB04KT P6SM SKC
     FM251400 20008KT P6SM SKC
     FM251800 21016KT P6SM SKC
     FM260200 18008KT P6SM FEW250
     FM260500 26007KT P6SM SCT200 WS012/25020KT=

USA.gov is the U.S. government's official web portal to all federal, state and local government web resources and services.